YPR weather

Prince Rupert Airport
Prince Rupert, British Columbia, Canada

Public forecast

Using degrees Celsius for public forecast. Weather courtesy of forecast.io.

Current aviation weather report (METAR) for Prince Rupert Airport

Retrieved 2019/11/15 14:00 UTC (14 minutes ago):

CYPR 151400Z AUTO 13005KT 9SM BKN060 08/07 A2970 RMK SLP059

Aviation forecast (TAF) for Prince Rupert Airport

Retrieved 2019/11/15 13:39 UTC (35 minutes ago):

TAF CYPR 151238Z 1513/1601 13006KT P6SM SCT015 SCT050 TEMPO 1513/1516 3SM -SHRA BR SCT008 BKN012 BKN020 FM151600 15010G20KT P6SM SCT012 BKN025 TEMPO 1516/1601 4SM -SHRA BR SCT008 BKN012 PROB30 1516/1601 2SM TSRA BR BKN012 OVC020CB RMK FCST BASED ON AUTO OBS NXT FCST BY 151900Z